Home > Products > Valid Products > TAF

000
FTPQ31 PGUM 022320
TAFGUM
TAF
PGUM 022320Z 0300/0406 23011G17KT P6SM VCSH FEW016 SCT050 BKN120
     FM030200 22015G25KT P6SM VCSH FEW016 SCT050 BKN120
     FM031000 20008KT P6SM VCSH FEW020 SCT040 BKN150
     FM032300 19011G17KT P6SM VCSH SCT020 SCT050=



000
FTPQ31 PGUM 022320
TAFGUM
TAF
PGUM 022320Z 0300/0406 23011G17KT P6SM VCSH FEW016 SCT050 BKN120
     FM030200 22015G25KT P6SM VCSH FEW016 SCT050 BKN120
     FM031000 20008KT P6SM VCSH FEW020 SCT040 BKN150
     FM032300 19011G17KT P6SM VCSH SCT020 SCT050=



000
FTPQ31 PGUM 022320
TAFGUM
TAF
PGUM 022320Z 0300/0406 23011G17KT P6SM VCSH FEW016 SCT050 BKN120
     FM030200 22015G25KT P6SM VCSH FEW016 SCT050 BKN120
     FM031000 20008KT P6SM VCSH FEW020 SCT040 BKN150
     FM032300 19011G17KT P6SM VCSH SCT020 SCT050=



000
FTPQ31 PGUM 022320
TAFGUM
TAF
PGUM 022320Z 0300/0406 23011G17KT P6SM VCSH FEW016 SCT050 BKN120
     FM030200 22015G25KT P6SM VCSH FEW016 SCT050 BKN120
     FM031000 20008KT P6SM VCSH FEW020 SCT040 BKN150
     FM032300 19011G17KT P6SM VCSH SCT020 SCT050=



000
FTPQ31 PGUM 022217 AAE
TAFGUM
TAF AMD
PGUM 022217Z 0222/0324 23011G17KT P6SM VCSH FEW016 SCT050 BKN120
     FM030200 22015G25KT P6SM VCSH FEW016 SCT050 BKN120
     FM031000 19008KT P6SM VCSH FEW020 SCT040 BKN150=



000
FTPQ31 PGUM 022217 AAE
TAFGUM
TAF AMD
PGUM 022217Z 0222/0324 23011G17KT P6SM VCSH FEW016 SCT050 BKN120
     FM030200 22015G25KT P6SM VCSH FEW016 SCT050 BKN120
     FM031000 19008KT P6SM VCSH FEW020 SCT040 BKN150=



000
FTPQ31 PGUM 022217 AAE
TAFGUM
TAF AMD
PGUM 022217Z 0222/0324 23011G17KT P6SM VCSH FEW016 SCT050 BKN120
     FM030200 22015G25KT P6SM VCSH FEW016 SCT050 BKN120
     FM031000 19008KT P6SM VCSH FEW020 SCT040 BKN150=



000
FTPQ31 PGUM 022054 AAG
TAFGUM
TAF AMD
PGUM 022054Z 0221/0324 23011G22KT P6SM VCSH FEW016 SCT050 BKN120
     FM030200 22015G28KT P6SM VCSH FEW016 SCT050 BKN120
     FM031000 19008KT P6SM VCSH FEW020 SCT040 BKN150=



000
FTPQ31 PGUM 022054 AAG
TAFGUM
TAF AMD
PGUM 022054Z 0221/0324 23011G22KT P6SM VCSH FEW016 SCT050 BKN120
     FM030200 22015G28KT P6SM VCSH FEW016 SCT050 BKN120
     FM031000 19008KT P6SM VCSH FEW020 SCT040 BKN150=



000
FTPQ31 PGUM 021731
TAFGUM
TAF
PGUM 021731Z 0218/0324 23011G22KT P6SM VCSH FEW016 SCT050 BKN120
      TEMPO 0218/0222 -SHRA SCT014 BKN030
     FM030200 21015G28KT P6SM VCSH FEW016 SCT050 BKN120=



000
FTPQ31 PGUM 021136
TAFGUM
TAF
PGUM 021136Z 0212/0318 26018G30KT P6SM VCSH FEW016 BKN050 OVC100
      TEMPO 0212/0216 5SM SHRA SCT014 BKN025
     FM021800 22015G25KT P6SM VCSH FEW016 BKN050 OVC100=



000
FTPQ31 PGUM 021136
TAFGUM
TAF
PGUM 021136Z 0212/0318 26018G30KT P6SM VCSH FEW016 BKN050 OVC100
      TEMPO 0212/0216 5SM SHRA SCT014 BKN025
     FM021800 22015G25KT P6SM VCSH FEW016 BKN050 OVC100=



000
FTPQ31 PGUM 021136
TAFGUM
TAF
PGUM 021136Z 0212/0318 26018G30KT P6SM VCSH FEW016 BKN050 OVC100
      TEMPO 0212/0216 5SM SHRA SCT014 BKN025
     FM021800 22015G25KT P6SM VCSH FEW016 BKN050 OVC100=



000
FTPQ31 PGUM 020937 AAA
TAFGUM
TAF AMD
PGUM 020937Z 0210/0312 29013G23KT P6SM VCSH FEW016 BKN050 OVC100
      TEMPO 0210/0214 5SM SHRA SCT014 BKN025
     FM021500 25018G28KT P6SM VCSH FEW014 BKN040 OVC080=



000
FTPQ31 PGUM 020937 AAA
TAFGUM
TAF AMD
PGUM 020937Z 0210/0312 29013G23KT P6SM VCSH FEW016 BKN050 OVC100
      TEMPO 0210/0214 5SM SHRA SCT014 BKN025
     FM021500 25018G28KT P6SM VCSH FEW014 BKN040 OVC080=



000
FTPQ31 PGUM 020937 AAA
TAFGUM
TAF AMD
PGUM 020937Z 0210/0312 29013G23KT P6SM VCSH FEW016 BKN050 OVC100
      TEMPO 0210/0214 5SM SHRA SCT014 BKN025
     FM021500 25018G28KT P6SM VCSH FEW014 BKN040 OVC080=



000
FTPQ31 PGUM 020539
TAFGUM
TAF
PGUM 020539Z 0206/0312 30015G25KT P6SM VCSH FEW010 SCT020 BKN040
     FM021200 24018G28KT P6SM VCSH FEW010 SCT020 BKN040=



000
FTPQ31 PGUM 020539
TAFGUM
TAF
PGUM 020539Z 0206/0312 30015G25KT P6SM VCSH FEW010 SCT020 BKN040
     FM021200 24018G28KT P6SM VCSH FEW010 SCT020 BKN040=



000
FTPQ31 PGUM 020539
TAFGUM
TAF
PGUM 020539Z 0206/0312 30015G25KT P6SM VCSH FEW010 SCT020 BKN040
     FM021200 24018G28KT P6SM VCSH FEW010 SCT020 BKN040=



000
FTPQ31 PGUM 020539
TAFGUM
TAF
PGUM 020539Z 0206/0312 30015G25KT P6SM VCSH FEW010 SCT020 BKN040
     FM021200 24018G28KT P6SM VCSH FEW010 SCT020 BKN040=



000
FTPQ31 PGUM 012333
TAFGUM
TAF
PGUM 012333Z 0200/0306 34012KT P6SM VCSH FEW017 SCT022 BKN050
     FM020600 27015G25KT P6SM VCSH FEW010 SCT020 BKN040
     FM021300 20012G20KT P6SM VCSH FEW010 SCT020 BKN040
     FM021800 23012KT P6SM VCSH FEW020 SCT040 BKN100=



000
FTPQ31 PGUM 012333
TAFGUM
TAF
PGUM 012333Z 0200/0306 34012KT P6SM VCSH FEW017 SCT022 BKN050
     FM020600 27015G25KT P6SM VCSH FEW010 SCT020 BKN040
     FM021300 20012G20KT P6SM VCSH FEW010 SCT020 BKN040
     FM021800 23012KT P6SM VCSH FEW020 SCT040 BKN100=



000
FTPQ31 PGUM 012333
TAFGUM
TAF
PGUM 012333Z 0200/0306 34012KT P6SM VCSH FEW017 SCT022 BKN050
     FM020600 27015G25KT P6SM VCSH FEW010 SCT020 BKN040
     FM021300 20012G20KT P6SM VCSH FEW010 SCT020 BKN040
     FM021800 23012KT P6SM VCSH FEW020 SCT040 BKN100=



000
FTPQ31 PGUM 012333
TAFGUM
TAF
PGUM 012333Z 0200/0306 34012KT P6SM VCSH FEW017 SCT022 BKN050
     FM020600 27015G25KT P6SM VCSH FEW010 SCT020 BKN040
     FM021300 20012G20KT P6SM VCSH FEW010 SCT020 BKN040
     FM021800 23012KT P6SM VCSH FEW020 SCT040 BKN100=



000
FTPQ31 PGUM 012154
TAFPQ

TAF AMD
PGUM 012153Z 0122/0224 33012KT P6SM VCSH SCT020 SCT040 BKN100
     FM012300 32011G20KT P6SM VCSH SCT020 BKN090
     FM020600 27015G25KT P6SM VCSH FEW010 SCT020 BKN040
     FM021300 20012G20KT P6SM VCSH FEW010 SCT020 BKN040
     FM021800 23012KT P6SM VCSH FEW020 SCT040 BKN100=



000
FTPQ31 PGUM 012154
TAFPQ

TAF AMD
PGUM 012153Z 0122/0224 33012KT P6SM VCSH SCT020 SCT040 BKN100
     FM012300 32011G20KT P6SM VCSH SCT020 BKN090
     FM020600 27015G25KT P6SM VCSH FEW010 SCT020 BKN040
     FM021300 20012G20KT P6SM VCSH FEW010 SCT020 BKN040
     FM021800 23012KT P6SM VCSH FEW020 SCT040 BKN100=



000
FTPQ31 PGUM 012153 AAG
TAFGUM
TAF AMD
PGUM 012153Z 0122/0224 33012KT P6SM VCSH SCT020 SCT040 BKN100
     FM012300 32011G20KT P6SM VCSH SCT020 BKN090
     FM020600 27015G25KT P6SM VCSH FEW010 SCT020 BKN040
     FM021300 20012G20KT P6SM VCSH FEW010 SCT020 BKN040
     FM021800 23012KT P6SM VCSH FEW020 SCT040 BKN100=



000
FTPQ31 PGUM 012153 AAG
TAFGUM
TAF AMD
PGUM 012153Z 0122/0224 33012KT P6SM VCSH SCT020 SCT040 BKN100
     FM012300 32011G20KT P6SM VCSH SCT020 BKN090
     FM020600 27015G25KT P6SM VCSH FEW010 SCT020 BKN040
     FM021300 20012G20KT P6SM VCSH FEW010 SCT020 BKN040
     FM021800 23012KT P6SM VCSH FEW020 SCT040 BKN100=



000
FTPQ31 PGUM 012153 AAG
TAFGUM
TAF AMD
PGUM 012153Z 0122/0224 33012KT P6SM VCSH SCT020 SCT040 BKN100
     FM012300 32011G20KT P6SM VCSH SCT020 BKN090
     FM020600 27015G25KT P6SM VCSH FEW010 SCT020 BKN040
     FM021300 20012G20KT P6SM VCSH FEW010 SCT020 BKN040
     FM021800 23012KT P6SM VCSH FEW020 SCT040 BKN100=



000
FTPQ31 PGUM 011748
TAFGUM
TAF
PGUM 011748Z 0118/0224 VRB06KT P6SM VCSH FEW020 SCT040
      TEMPO 0118/0122 VRB10G20KT 5SM SHRA BKN020 BKN040 OVC090
     FM012200 32011G20KT P6SM VCSH SCT020 BKN090
     FM020600 27015G25KT P6SM VCSH FEW010 SCT020 BKN040
     FM021300 20012G20KT P6SM VCSH FEW010 SCT020 BKN040
     FM021800 23012KT P6SM VCSH FEW020 SCT040 BKN100=



000
FTPQ31 PGUM 011748
TAFGUM
TAF
PGUM 011748Z 0118/0224 VRB06KT P6SM VCSH FEW020 SCT040
      TEMPO 0118/0122 VRB10G20KT 5SM SHRA BKN020 BKN040 OVC090
     FM012200 32011G20KT P6SM VCSH SCT020 BKN090
     FM020600 27015G25KT P6SM VCSH FEW010 SCT020 BKN040
     FM021300 20012G20KT P6SM VCSH FEW010 SCT020 BKN040
     FM021800 23012KT P6SM VCSH FEW020 SCT040 BKN100=



000
FTPQ31 PGUM 011748
TAFGUM
TAF
PGUM 011748Z 0118/0224 VRB06KT P6SM VCSH FEW020 SCT040
      TEMPO 0118/0122 VRB10G20KT 5SM SHRA BKN020 BKN040 OVC090
     FM012200 32011G20KT P6SM VCSH SCT020 BKN090
     FM020600 27015G25KT P6SM VCSH FEW010 SCT020 BKN040
     FM021300 20012G20KT P6SM VCSH FEW010 SCT020 BKN040
     FM021800 23012KT P6SM VCSH FEW020 SCT040 BKN100=



000
FTPQ31 PGUM 011748
TAFGUM
TAF
PGUM 011748Z 0118/0224 VRB06KT P6SM VCSH FEW020 SCT040
      TEMPO 0118/0122 VRB10G20KT 5SM SHRA BKN020 BKN040 OVC090
     FM012200 32011G20KT P6SM VCSH SCT020 BKN090
     FM020600 27015G25KT P6SM VCSH FEW010 SCT020 BKN040
     FM021300 20012G20KT P6SM VCSH FEW010 SCT020 BKN040
     FM021800 23012KT P6SM VCSH FEW020 SCT040 BKN100=



000
FTPQ31 PGUM 011126
TAFGUM
TAF
PGUM 011126Z 0112/0218 36006KT P6SM VCSH SCT020
     FM012300 32011KT P6SM VCSH SCT020=



000
FTPQ31 PGUM 011126
TAFGUM
TAF
PGUM 011126Z 0112/0218 36006KT P6SM VCSH SCT020
     FM012300 32011KT P6SM VCSH SCT020=



000
FTPQ31 PGUM 010620 AAA
TAFGUM
TAF AMD
PGUM 010620Z 0106/0212 35010KT P6SM VCTS SCT020CB
     FM010800 02007KT P6SM VCSH SCT020=



000
FTPQ31 PGUM 010620 AAA
TAFGUM
TAF AMD
PGUM 010620Z 0106/0212 35010KT P6SM VCTS SCT020CB
     FM010800 02007KT P6SM VCSH SCT020=



000
FTPQ31 PGUM 010620 AAA
TAFGUM
TAF AMD
PGUM 010620Z 0106/0212 35010KT P6SM VCTS SCT020CB
     FM010800 02007KT P6SM VCSH SCT020=



000
FTPQ31 PGUM 010620 AAA
TAFGUM
TAF AMD
PGUM 010620Z 0106/0212 35010KT P6SM VCTS SCT020CB
     FM010800 02007KT P6SM VCSH SCT020=



000
FTPQ31 PGUM 010532
TAFGUM
TAF
PGUM 010532Z 0106/0212 02007KT P6SM VCSH SCT020
      TEMPO 0106/0107 BKN020 OVC060=



000
FTPQ31 PGUM 010532
TAFGUM
TAF
PGUM 010532Z 0106/0212 02007KT P6SM VCSH SCT020
      TEMPO 0106/0107 BKN020 OVC060=



000
FTPQ31 PGUM 010237 AAB
TAFGUM
TAF AMD
PGUM 010237Z 0103/0206 05011KT P6SM VCTS SCT020CB
      TEMPO 0103/0105 SHRA BKN020 OVC060=



000
FTPQ31 PGUM 010237 AAB
TAFGUM
TAF AMD
PGUM 010237Z 0103/0206 05011KT P6SM VCTS SCT020CB
      TEMPO 0103/0105 SHRA BKN020 OVC060=



000
FTPQ31 PGUM 010237 AAB
TAFGUM
TAF AMD
PGUM 010237Z 0103/0206 05011KT P6SM VCTS SCT020CB
      TEMPO 0103/0105 SHRA BKN020 OVC060=



000
FTPQ31 PGUM 010237 AAB
TAFGUM
TAF AMD
PGUM 010237Z 0103/0206 05011KT P6SM VCTS SCT020CB
      TEMPO 0103/0105 SHRA BKN020 OVC060=



000
FTPQ31 PGUM 010003 AAA
TAFGUM
TAF AMD
PGUM 010003Z 0100/0206 05011KT P6SM VCSH SCT022
      TEMPO 0100/0102 SHRA BKN015 OVC060=



000
FTPQ31 PGUM 010003 AAA
TAFGUM
TAF AMD
PGUM 010003Z 0100/0206 05011KT P6SM VCSH SCT022
      TEMPO 0100/0102 SHRA BKN015 OVC060=



000
FTPQ31 PGUM 010003 AAA
TAFGUM
TAF AMD
PGUM 010003Z 0100/0206 05011KT P6SM VCSH SCT022
      TEMPO 0100/0102 SHRA BKN015 OVC060=



000
FTPQ31 PGUM 010003 AAA
TAFGUM
TAF AMD
PGUM 010003Z 0100/0206 05011KT P6SM VCSH SCT022
      TEMPO 0100/0102 SHRA BKN015 OVC060=



000
FTPQ31 PGUM 312342
TAFGUM
TAF
PGUM 312342Z 0100/0206 05011KT P6SM VCSH SCT022=



000
FTPQ31 PGUM 312342
TAFGUM
TAF
PGUM 312342Z 0100/0206 05011KT P6SM VCSH SCT022=



000
FTPQ31 PGUM 312342
TAFGUM
TAF
PGUM 312342Z 0100/0206 05011KT P6SM VCSH SCT022=



000
FTPQ31 PGUM 311741
TAFGUM
TAF
PGUM 311741Z 3118/0124 05009KT P6SM VCSH SCT022=



000
FTPQ31 PGUM 311741
TAFGUM
TAF
PGUM 311741Z 3118/0124 05009KT P6SM VCSH SCT022=



000
FTPQ31 PGUM 311741
TAFGUM
TAF
PGUM 311741Z 3118/0124 05009KT P6SM VCSH SCT022=



000
FTPQ31 PGUM 311741
TAFGUM
TAF
PGUM 311741Z 3118/0124 05009KT P6SM VCSH SCT022=



000
FTPQ31 PGUM 311124
TAFGUM
TAF
PGUM 311124Z 3112/0118 05005KT P6SM VCSH SCT022=



000
FTPQ31 PGUM 311124
TAFGUM
TAF
PGUM 311124Z 3112/0118 05005KT P6SM VCSH SCT022=



000
FTPQ31 PGUM 311124
TAFGUM
TAF
PGUM 311124Z 3112/0118 05005KT P6SM VCSH SCT022=



000
FTPQ31 PGUM 311124
TAFGUM
TAF
PGUM 311124Z 3112/0118 05005KT P6SM VCSH SCT022=



000
FTPQ31 PGUM 310527
TAFGUM
TAF
PGUM 310527Z 3106/0112 10005KT P6SM VCSH SCT022=



000
FTPQ31 PGUM 310527
TAFGUM
TAF
PGUM 310527Z 3106/0112 10005KT P6SM VCSH SCT022=



    US Dept of Commerce
    National Oceanic and Atmospheric Administration
    National Weather Service
    1325 East West Highway
    Silver Spring, MD 20910
    Page Author: NWS Internet Services Team
Disclaimer
Information Quality
Credits
Glossary
Privacy Policy
Freedom of Information Act (FOIA)
About Us
Career Opportunities